Monday, December 18, 2017, 5:06 PM EST
Back to Local

KMMK, Meriden Markham Municipal Airport

Location: Meriden, CT, United States Lat: 41.517
Local Time: 5:06 PM EST (22:06 GMT) Lon: -72.833
Time Zone: US/Eastern Elev: 101 ft

Show me the last for .
Show Decoded

2017-12-18 16:53 METAR KMMK 182153Z AUTO 00000KT 10SM FEW007 OVC070 01/M04 A2996 RMK AO2 SLP147
                 T00111039 =
2017-12-18 15:53 METAR KMMK 182053Z AUTO 00000KT 10SM FEW007 SCT060 OVC070 02/M05 A2996 RMK AO2
                 SLP147 T00171050 58009 =
2017-12-18 14:53 METAR KMMK 181953Z AUTO 00000KT 10SM OVC009 02/M06 A2998 RMK AO2 SLP153
                 T00171061 =
2017-12-18 14:48 METAR KMMK 181948Z AUTO 00000KT 10SM OVC009 02/M06 A2998 RMK AO2 =
2017-12-18 13:53 METAR KMMK 181853Z AUTO 00000KT 10SM OVC011 01/M06 A2999 RMK AO2 SLP156
                 T00111061 =
2017-12-18 12:53 METAR KMMK 181753Z AUTO 00000KT 10SM OVC014 01/M07 A3003 RMK AO2 SLP171
                 T00111067 10011 21022 56029 =
2017-12-18 12:08 METAR KMMK 181708Z AUTO 31004KT 10SM OVC014 00/M08 A3006 RMK AO2 T00001078 =
2017-12-18 11:53 METAR KMMK 181653Z AUTO 33005KT 10SM OVC019 00/M07 A3006 RMK AO2 SLP182
                 T00001072 =
2017-12-18 10:53 METAR KMMK 181553Z AUTO 00000KT 10SM OVC019 M01/M08 A3008 RMK AO2 SLP187
                 T10061083 =
2017-12-18 09:53 METAR KMMK 181453Z AUTO 00000KT 10SM OVC018 M01/M09 A3012 RMK AO2 SLP200
                 T10061089 58016 =
2017-12-18 08:53 METAR KMMK 181353Z AUTO 02003KT 10SM OVC021 M02/M09 A3014 RMK AO2 SLP208
                 T10171094 =
2017-12-18 08:23 METAR KMMK 181323Z AUTO 35004KT 10SM BKN023 OVC080 M02/M09 A3015 RMK AO2
                 T10171094 =
2017-12-18 07:53 METAR KMMK 181253Z AUTO 00000KT 10SM FEW022 SCT035 OVC075 M02/M10 A3014 RMK AO2
                 SLP209 T10221100 =
2017-12-18 07:21 METAR KMMK 181221Z AUTO 00000KT 10SM SCT022 SCT065 OVC075 M02/M10 A3016 RMK AO2
                 T10221100 =
2017-12-18 06:53 METAR KMMK 181153Z AUTO 00000KT 10SM OVC022 M02/M11 A3017 RMK AO2 SLP216
                 T10221106 11017 21022 55006 =
2017-12-18 05:53 METAR KMMK 181053Z AUTO 00000KT 10SM OVC022 M02/M11 A3016 RMK AO2 SLP216
                 T10221106 =
2017-12-18 04:53 METAR KMMK 180953Z AUTO 00000KT 10SM OVC023 M02/M11 A3018 RMK AO2 SLP221
                 T10221111 =
2017-12-18 03:53 METAR KMMK 180853Z AUTO 03003KT 10SM OVC023 M02/M12 A3018 RMK AO2 SLP223
                 T10221117 58009 =
2017-12-18 02:53 METAR KMMK 180753Z AUTO 36003KT 10SM OVC022 M02/M11 A3021 RMK AO2 SLP231
                 T10221111 =
2017-12-18 01:53 METAR KMMK 180653Z AUTO 00000KT 10SM OVC023 M02/M12 A3021 RMK AO2 SLP232
                 T10221117 =
2017-12-18 00:53 METAR KMMK 180553Z AUTO 00000KT 10SM OVC025 M02/M12 A3021 RMK AO2 SLP232
                 T10221117 11017 21028 58014 =
2017-12-18 00:39 METAR KMMK 180539Z AUTO 01004KT 10SM BKN025 BKN070 M02/M11 A3021 RMK AO2
                 T10221111 =
2017-12-17 23:53 METAR KMMK 180453Z AUTO 00000KT 10SM OVC070 M02/M11 A3022 RMK AO2 SLP235
                 T10171111 400001133 =
2017-12-17 22:53 METAR KMMK 180353Z AUTO 00000KT 10SM BKN065 BKN085 OVC110 M02/M07 A3025 RMK AO2
                 SLP244 T10221067 =
2017-12-17 21:53 METAR KMMK 180253Z AUTO 00000KT 10SM OVC080 M02/M08 A3025 RMK AO2 SLP245
                 T10221078 58009 =
2017-12-17 20:53 METAR KMMK 180153Z AUTO 00000KT 10SM OVC100 M02/M08 A3027 RMK AO2 SLP253
                 T10221083 =
2017-12-17 19:53 METAR KMMK 180053Z AUTO 00000KT 10SM FEW120 M02/M09 A3028 RMK AO2 SLP257
                 T10221089 =
2017-12-17 18:53 METAR KMMK 172353Z AUTO 00000KT 10SM FEW120 M03/M08 A3028 RMK AO2 SLP256
                 T10281083 10000 21033 53013 =
2017-12-17 17:53 METAR KMMK 172253Z AUTO 00000KT 10SM CLR M03/M09 A3026 RMK AO2 SLP249 T10281089
                 =

Support USWX by starting your Amazon purchase here.